Time;durP1;ratioP1;P1;durP2;ratioP2;P2;SDS_P1;SDS_P2;PMS_P1;PMS_P2;Temp;Humidity;BMP_temperature;BMP_pressure;BME280_temperature;BME280_humidity;BME280_pressure;Samples;Min_cycle;Max_cycle;Signal;HPM_P1;HPM_P2
2021/07/27 00:02:16;;;;;;;17.67;3.65;;;;;;;;;;143747;594;46020;-92
2021/07/27 00:04:43;;;;;;;7.70;3.65;;;;;;;;;;143750;570;46013;-92
2021/07/27 00:07:11;;;;;;;5.10;3.35;;;;;;;;;;143745;616;47023;-93
2021/07/27 00:09:39;;;;;;;7.28;3.65;;;;;;;;;;143746;573;46020;-93
2021/07/27 00:12:06;;;;;;;9.38;3.60;;;;;;;;;;143739;565;47021;-93
2021/07/27 00:14:36;;;;;;;5.12;3.03;;;;;;;;;;143747;618;47020;-91
2021/07/27 00:17:02;;;;;;;5.78;3.83;;;;;;;;;;143744;600;47020;-92
2021/07/27 00:19:34;;;;;;;7.22;4.12;;;;;;;;;;143747;601;46020;-92
2021/07/27 00:22:01;;;;;;;5.30;3.72;;;;;;;;;;143746;600;47020;-91
2021/07/27 00:24:29;;;;;;;5.75;3.25;;;;;;;;;;143748;572;47018;-92
2021/07/27 00:26:57;;;;;;;5.20;3.30;;;;;;;;;;143745;613;47020;-93
2021/07/27 00:29:25;;;;;;;7.28;3.42;;;;;;;;;;143744;567;47020;-90
2021/07/27 00:31:51;;;;;;;7.22;4.22;;;;;;;;;;143747;602;46014;-92
2021/07/27 00:34:21;;;;;;;4.62;3.10;;;;;;;;;;143750;593;46042;-92
2021/07/27 00:36:52;;;;;;;20.02;4.03;;;;;;;;;;143743;583;46020;-90
2021/07/27 00:39:23;;;;;;;4.93;3.50;;;;;;;;;;143750;587;46012;-93
2021/07/27 00:41:52;;;;;;;4.97;3.27;;;;;;;;;;143752;647;46019;-92
2021/07/27 00:44:36;;;;;;;6.50;3.53;;;;;;;;;;143749;567;46020;-94
2021/07/27 00:47:03;;;;;;;7.40;3.03;;;;;;;;;;143748;577;47022;-92
2021/07/27 00:49:32;;;;;;;6.12;3.15;;;;;;;;;;143748;581;46021;-92
2021/07/27 00:52:00;;;;;;;6.68;3.30;;;;;;;;;;143747;578;46023;-92
2021/07/27 00:54:27;;;;;;;5.00;3.60;;;;;;;;;;143747;596;47020;-91
2021/07/27 00:56:57;;;;;;;8.07;3.53;;;;;;;;;;143746;634;46014;-93
2021/07/27 00:59:25;;;;;;;9.60;3.30;;;;;;;;;;143747;573;46020;-93
2021/07/27 01:01:54;;;;;;;5.62;3.00;;;;;;;;;;143742;569;46020;-91
2021/07/27 01:04:22;;;;;;;9.32;3.40;;;;;;;;;;143749;571;46045;-93
2021/07/27 01:06:50;;;;;;;6.18;3.50;;;;;;;;;;143747;593;46020;-91
2021/07/27 01:09:18;;;;;;;12.40;3.53;;;;;;;;;;143747;601;46020;-89
2021/07/27 01:11:45;;;;;;;6.35;3.55;;;;;;;;;;143749;573;46015;-93
2021/07/27 01:14:12;;;;;;;7.40;3.85;;;;;;;;;;143748;594;46012;-94
2021/07/27 01:16:39;;;;;;;6.00;2.87;;;;;;;;;;143748;600;47022;-92
2021/07/27 01:44:15;;;;;;;5.95;3.33;;;;;;;;;;143748;559;46014;-92
2021/07/27 01:46:42;;;;;;;7.12;3.03;;;;;;;;;;143750;573;46020;-92
2021/07/27 01:49:09;;;;;;;4.75;3.08;;;;;;;;;;143746;571;46015;-91
2021/07/27 01:51:46;;;;;;;6.82;3.50;;;;;;;;;;143744;588;47020;-92
2021/07/27 01:54:15;;;;;;;5.55;3.40;;;;;;;;;;143743;615;46014;-91
2021/07/27 01:56:47;;;;;;;4.82;3.45;;;;;;;;;;143750;600;46013;-91
2021/07/27 01:59:14;;;;;;;6.20;4.78;;;;;;;;;;143748;569;46023;-92
2021/07/27 02:01:41;;;;;;;8.85;3.58;;;;;;;;;;143748;675;46012;-91
2021/07/27 02:04:07;;;;;;;5.25;3.28;;;;;;;;;;143749;592;46014;-96
2021/07/27 02:06:34;;;;;;;5.95;3.42;;;;;;;;;;143749;623;46012;-91
2021/07/27 02:09:06;;;;;;;14.50;4.00;;;;;;;;;;143746;590;46047;-95
2021/07/27 02:11:39;;;;;;;13.60;4.37;;;;;;;;;;143746;674;46021;-92
2021/07/27 02:14:10;;;;;;;3.85;3.35;;;;;;;;;;143745;580;47020;-91
2021/07/27 02:16:37;;;;;;;8.40;3.70;;;;;;;;;;143750;623;46012;-95
2021/07/27 02:19:04;;;;;;;12.45;3.90;;;;;;;;;;143739;583;46022;-93
2021/07/27 02:21:33;;;;;;;7.12;3.42;;;;;;;;;;143745;645;46020;-92
2021/07/27 02:24:01;;;;;;;7.12;3.80;;;;;;;;;;143749;566;46043;-91
2021/07/27 02:26:29;;;;;;;6.03;3.78;;;;;;;;;;143750;608;46018;-92
2021/07/27 02:28:56;;;;;;;7.07;3.87;;;;;;;;;;143746;582;47023;-92
2021/07/27 02:31:32;;;;;;;4.65;3.05;;;;;;;;;;143746;598;46020;-92
2021/07/27 02:33:59;;;;;;;7.47;4.07;;;;;;;;;;143747;612;46021;-92
2021/07/27 02:36:26;;;;;;;7.10;3.92;;;;;;;;;;143749;574;46012;-91
2021/07/27 02:38:53;;;;;;;13.02;3.80;;;;;;;;;;143744;587;47022;-94
2021/07/27 02:41:37;;;;;;;7.55;3.97;;;;;;;;;;143746;584;46021;-92
2021/07/27 02:44:05;;;;;;;7.18;3.53;;;;;;;;;;143740;579;46020;-92
2021/07/27 02:46:32;;;;;;;11.95;4.12;;;;;;;;;;143749;565;46018;-94
2021/07/27 02:49:03;;;;;;;5.53;3.47;;;;;;;;;;143744;607;47022;-89
2021/07/27 02:51:30;;;;;;;7.60;3.87;;;;;;;;;;143746;564;46012;-94
2021/07/27 02:53:59;;;;;;;8.48;4.10;;;;;;;;;;143747;578;46020;-95
2021/07/27 02:56:27;;;;;;;6.25;3.58;;;;;;;;;;143748;583;46018;-92
2021/07/27 02:58:55;;;;;;;8.43;4.82;;;;;;;;;;143746;570;46020;-90
2021/07/27 03:01:22;;;;;;;7.95;4.37;;;;;;;;;;143745;564;46020;-94
2021/07/27 03:03:49;;;;;;;7.75;4.50;;;;;;;;;;143750;570;46014;-93
2021/07/27 03:06:18;;;;;;;7.07;4.03;;;;;;;;;;143749;572;46018;-92
2021/07/27 03:09:02;;;;;;;9.88;3.92;;;;;;;;;;143741;566;46022;-92
2021/07/27 03:11:30;;;;;;;11.35;3.97;;;;;;;;;;143746;583;46013;-92
2021/07/27 03:13:57;;;;;;;5.75;4.95;;;;;;;;;;143747;589;46018;-92
2021/07/27 03:16:26;;;;;;;5.35;3.60;;;;;;;;;;143747;593;46012;-92
2021/07/27 03:18:53;;;;;;;7.03;4.25;;;;;;;;;;143744;580;47022;-92
2021/07/27 03:21:26;;;;;;;11.45;4.22;;;;;;;;;;143745;567;46012;-91
2021/07/27 03:24:00;;;;;;;8.45;4.20;;;;;;;;;;143750;587;46020;-94
2021/07/27 03:26:27;;;;;;;8.57;3.90;;;;;;;;;;143749;624;46013;-93
2021/07/27 03:28:54;;;;;;;7.10;3.55;;;;;;;;;;143744;598;46020;-92
2021/07/27 03:31:24;;;;;;;23.50;4.82;;;;;;;;;;143746;575;46012;-92
2021/07/27 03:33:51;;;;;;;8.88;4.07;;;;;;;;;;143743;614;46014;-94
2021/07/27 03:36:17;;;;;;;6.75;3.65;;;;;;;;;;143748;587;46012;-93
2021/07/27 03:38:45;;;;;;;6.70;3.90;;;;;;;;;;143747;644;46022;-91
2021/07/27 03:41:12;;;;;;;8.88;4.47;;;;;;;;;;143743;580;46013;-91
2021/07/27 03:43:39;;;;;;;8.88;3.90;;;;;;;;;;143750;582;46020;-94
2021/07/27 03:46:07;;;;;;;12.27;4.10;;;;;;;;;;143747;633;48012;-92
2021/07/27 03:48:36;;;;;;;9.15;4.28;;;;;;;;;;143748;611;46022;-91
2021/07/27 03:51:06;;;;;;;6.60;4.32;;;;;;;;;;143745;604;46020;-92
2021/07/27 03:53:32;;;;;;;5.28;3.95;;;;;;;;;;143747;616;46014;-93
2021/07/27 03:55:59;;;;;;;15.60;4.03;;;;;;;;;;143750;583;46018;-92
2021/07/27 03:58:26;;;;;;;29.20;5.72;;;;;;;;;;143742;624;46023;-93
2021/07/27 04:00:54;;;;;;;14.27;5.10;;;;;;;;;;143745;587;46020;-92
2021/07/27 04:03:25;;;;;;;9.68;4.78;;;;;;;;;;143748;617;46020;-93
2021/07/27 04:05:55;;;;;;;6.20;4.28;;;;;;;;;;143747;576;47020;-91
2021/07/27 04:08:22;;;;;;;6.68;4.53;;;;;;;;;;143745;616;47022;-90
2021/07/27 04:10:48;;;;;;;8.80;5.12;;;;;;;;;;143745;587;46012;-90
2021/07/27 04:13:15;;;;;;;9.25;3.58;;;;;;;;;;143747;585;46018;-91
2021/07/27 04:15:42;;;;;;;11.10;5.70;;;;;;;;;;143750;574;46012;-89
2021/07/27 04:18:09;;;;;;;17.90;4.32;;;;;;;;;;143745;599;49022;-93
2021/07/27 04:20:50;;;;;;;9.35;6.03;;;;;;;;;;143753;583;45020;-92
2021/07/27 04:23:48;;;;;;;16.77;4.72;;;;;;;;;;143746;573;45020;-93
2021/07/27 04:26:40;;;;;;;11.63;4.32;;;;;;;;;;143752;649;45021;-92
2021/07/27 04:29:08;;;;;;;16.80;5.37;;;;;;;;;;143748;589;46046;-91
2021/07/27 04:31:35;;;;;;;11.65;4.95;;;;;;;;;;143747;571;46020;-91
2021/07/27 04:34:10;;;;;;;10.27;5.18;;;;;;;;;;143747;560;46018;-92
2021/07/27 04:36:37;;;;;;;10.18;4.22;;;;;;;;;;143744;581;47020;-94
2021/07/27 04:39:07;;;;;;;12.13;4.78;;;;;;;;;;143743;594;46014;-92
2021/07/27 04:41:40;;;;;;;20.27;5.28;;;;;;;;;;143744;644;46021;-91
2021/07/27 04:44:08;;;;;;;14.60;4.45;;;;;;;;;;143748;565;46014;-89
2021/07/27 04:47:26;;;;;;;10.85;4.30;;;;;;;;;;143746;649;47019;-90
2021/07/27 04:49:57;;;;;;;20.23;4.20;;;;;;;;;;143741;601;46023;-91
2021/07/27 04:52:30;;;;;;;10.02;4.93;;;;;;;;;;143744;574;46020;-94
2021/07/27 04:55:11;;;;;;;10.48;4.15;;;;;;;;;;143746;566;46015;-92
2021/07/27 04:57:38;;;;;;;13.88;5.00;;;;;;;;;;143747;581;47020;-91
2021/07/27 05:00:20;;;;;;;34.97;5.72;;;;;;;;;;143745;636;46022;-91
2021/07/27 05:02:47;;;;;;;7.18;4.50;;;;;;;;;;143745;636;46044;-91
2021/07/27 05:05:21;;;;;;;8.05;5.03;;;;;;;;;;143745;619;46014;-92
2021/07/27 05:07:48;;;;;;;10.43;4.37;;;;;;;;;;143747;584;46018;-93
2021/07/27 05:10:18;;;;;;;11.68;4.85;;;;;;;;;;143745;574;46022;-92
2021/07/27 05:12:44;;;;;;;12.80;4.68;;;;;;;;;;143743;586;46012;-92
2021/07/27 05:15:13;;;;;;;10.68;4.45;;;;;;;;;;143741;562;46020;-91
2021/07/27 05:17:53;;;;;;;7.12;4.12;;;;;;;;;;143747;569;47019;-91
2021/07/27 05:20:20;;;;;;;10.73;5.00;;;;;;;;;;143746;638;46014;-92
2021/07/27 05:22:47;;;;;;;7.37;5.00;;;;;;;;;;143745;587;46020;-91
2021/07/27 05:25:36;;;;;;;6.10;4.15;;;;;;;;;;143745;584;47021;-92
2021/07/27 05:28:27;;;;;;;15.60;4.75;;;;;;;;;;143746;564;47018;-93
2021/07/27 05:30:57;;;;;;;8.48;4.35;;;;;;;;;;143744;607;46024;-88
2021/07/27 05:33:32;;;;;;;16.20;5.35;;;;;;;;;;143746;647;46918;-91
2021/07/27 05:36:00;;;;;;;10.00;5.47;;;;;;;;;;143747;654;46020;-93
2021/07/27 05:38:26;;;;;;;10.25;5.43;;;;;;;;;;143746;575;47019;-93
2021/07/27 05:40:54;;;;;;;18.45;5.55;;;;;;;;;;143739;590;47020;-93
2021/07/27 05:43:21;;;;;;;10.88;5.60;;;;;;;;;;143743;635;46012;-92
2021/07/27 05:45:48;;;;;;;12.40;5.10;;;;;;;;;;143744;924;46014;-93
2021/07/27 05:48:23;;;;;;;25.88;5.47;;;;;;;;;;143746;877;46013;-91
2021/07/27 05:51:04;;;;;;;12.45;5.03;;;;;;;;;;143748;829;46014;-90
2021/07/27 05:54:09;;;;;;;16.10;4.47;;;;;;;;;;143748;583;46020;-93
2021/07/27 05:57:19;;;;;;;18.30;5.12;;;;;;;;;;143750;615;45023;-93
2021/07/27 06:00:51;;;;;;;15.27;5.03;;;;;;;;;;143753;973;45020;-93
2021/07/27 06:04:27;;;;;;;;;;;;;;;;;;;;;
2021/07/27 06:07:36;;;;;;;13.52;5.22;;;;;;;;;;143751;764;45020;-91
2021/07/27 06:11:06;;;;;;;20.85;5.70;;;;;;;;;;143745;576;45021;-91
2021/07/27 06:17:58;;;;;;;;;;;;;;;;;;;;;
2021/07/27 06:30:51;;;;;;;19.02;4.62;;;;;;;;;;143750;751;45021;-92
2021/07/27 06:33:18;;;;;;;8.80;3.78;;;;;;;;;;143747;598;46021;-90
2021/07/27 06:35:44;;;;;;;7.10;3.45;;;;;;;;;;143753;566;45020;-90
2021/07/27 06:38:11;;;;;;;6.85;3.50;;;;;;;;;;143746;586;46020;-91
2021/07/27 06:40:39;;;;;;;8.23;3.83;;;;;;;;;;143745;619;46012;-91
2021/07/27 06:43:07;;;;;;;7.53;3.72;;;;;;;;;;143750;582;46020;-90
2021/07/27 06:45:34;;;;;;;7.93;3.92;;;;;;;;;;143751;571;45020;-92
2021/07/27 06:48:01;;;;;;;8.75;3.97;;;;;;;;;;143747;575;46023;-93
2021/07/27 06:50:29;;;;;;;18.05;5.03;;;;;;;;;;143746;608;46032;-90
2021/07/27 06:52:56;;;;;;;12.73;4.75;;;;;;;;;;143746;759;47019;-92
2021/07/27 06:55:22;;;;;;;16.77;4.78;;;;;;;;;;143751;571;45021;-92
2021/07/27 06:57:49;;;;;;;8.82;4.43;;;;;;;;;;143747;570;46022;-90
2021/07/27 07:00:17;;;;;;;16.98;4.70;;;;;;;;;;143746;610;46020;-90
2021/07/27 07:02:44;;;;;;;12.82;4.55;;;;;;;;;;143750;600;46020;-95
2021/07/27 07:05:12;;;;;;;16.08;4.68;;;;;;;;;;143751;583;46012;-91
2021/07/27 07:07:39;;;;;;;13.70;4.37;;;;;;;;;;143746;580;46022;-90
2021/07/27 07:10:15;;;;;;;11.88;4.72;;;;;;;;;;143748;639;46020;-92
2021/07/27 07:12:42;;;;;;;16.65;5.40;;;;;;;;;;143746;576;46020;-93
2021/07/27 07:15:09;;;;;;;10.05;5.25;;;;;;;;;;143749;744;46019;-93
2021/07/27 07:17:35;;;;;;;20.80;4.95;;;;;;;;;;143747;597;46014;-92
2021/07/27 07:20:06;;;;;;;16.45;5.03;;;;;;;;;;143747;655;46020;-92
2021/07/27 07:22:33;;;;;;;19.73;5.25;;;;;;;;;;143748;577;46014;-93
2021/07/27 07:25:01;;;;;;;11.63;5.18;;;;;;;;;;143749;690;46020;-92
2021/07/27 07:27:27;;;;;;;12.85;4.97;;;;;;;;;;143749;569;46020;-92
2021/07/27 07:29:59;;;;;;;15.48;5.20;;;;;;;;;;143748;570;46020;-91
2021/07/27 07:32:26;;;;;;;11.80;5.57;;;;;;;;;;143749;630;46021;-93
2021/07/27 07:34:53;;;;;;;17.10;5.12;;;;;;;;;;143751;599;45020;-93
2021/07/27 07:37:20;;;;;;;15.43;5.37;;;;;;;;;;143747;631;46022;-92
2021/07/27 07:39:46;;;;;;;13.43;6.32;;;;;;;;;;143748;601;45918;-92
2021/07/27 07:42:16;;;;;;;7.87;5.32;;;;;;;;;;143750;638;46018;-93
2021/07/27 07:44:43;;;;;;;13.13;5.10;;;;;;;;;;143752;581;45029;-93
2021/07/27 07:47:11;;;;;;;9.85;5.15;;;;;;;;;;143745;577;46023;-93
2021/07/27 07:49:39;;;;;;;12.90;4.80;;;;;;;;;;143746;620;47020;-91
2021/07/27 07:52:07;;;;;;;10.48;4.65;;;;;;;;;;143747;679;46020;-90
2021/07/27 07:54:35;;;;;;;12.95;5.00;;;;;;;;;;143748;718;46021;-93
2021/07/27 07:57:03;;;;;;;9.70;4.40;;;;;;;;;;143748;596;46014;-92
2021/07/27 07:59:29;;;;;;;18.02;5.25;;;;;;;;;;143748;587;46020;-91
2021/07/27 08:01:59;;;;;;;9.80;4.60;;;;;;;;;;143746;669;46021;-92
2021/07/27 08:04:33;;;;;;;11.57;4.68;;;;;;;;;;143750;602;45035;-93
2021/07/27 08:07:06;;;;;;;10.43;4.47;;;;;;;;;;143749;626;46014;-92
2021/07/27 08:09:35;;;;;;;7.45;4.05;;;;;;;;;;143749;571;45021;-91
2021/07/27 08:12:02;;;;;;;9.15;4.12;;;;;;;;;;143750;588;45020;-93
2021/07/27 08:14:29;;;;;;;14.23;4.97;;;;;;;;;;143753;578;46020;-91
2021/07/27 08:16:59;;;;;;;10.90;4.82;;;;;;;;;;143748;679;45023;-94
2021/07/27 08:19:26;;;;;;;8.75;4.55;;;;;;;;;;143745;579;46012;-89
2021/07/27 08:22:00;;;;;;;9.77;4.43;;;;;;;;;;143749;635;46020;-92
2021/07/27 08:24:36;;;;;;;7.15;3.45;;;;;;;;;;143752;594;46020;-92
2021/07/27 08:27:10;;;;;;;6.12;3.47;;;;;;;;;;143748;594;47036;-91
2021/07/27 08:29:38;;;;;;;6.37;3.60;;;;;;;;;;143744;701;46020;-93
2021/07/27 08:32:11;;;;;;;7.82;3.97;;;;;;;;;;143748;642;46014;-92
2021/07/27 08:34:41;;;;;;;7.60;3.80;;;;;;;;;;143750;575;46020;-90
2021/07/27 08:37:09;;;;;;;7.70;3.62;;;;;;;;;;143748;573;46022;-91
2021/07/27 08:39:37;;;;;;;8.88;4.78;;;;;;;;;;143745;608;46021;-92
2021/07/27 08:42:07;;;;;;;10.30;4.28;;;;;;;;;;143748;564;46020;-91
2021/07/27 08:44:36;;;;;;;13.70;4.78;;;;;;;;;;143748;684;46012;-90
2021/07/27 08:47:05;;;;;;;9.77;3.80;;;;;;;;;;143744;703;47023;-90
2021/07/27 08:49:33;;;;;;;8.90;3.50;;;;;;;;;;143746;569;46012;-89
2021/07/27 08:52:01;;;;;;;8.40;3.47;;;;;;;;;;143744;598;47020;-92
2021/07/27 08:54:29;;;;;;;8.35;3.50;;;;;;;;;;143751;629;46012;-91
2021/07/27 08:56:58;;;;;;;6.70;3.03;;;;;;;;;;143745;621;47022;-94
2021/07/27 08:59:28;;;;;;;5.32;3.33;;;;;;;;;;143745;577;46020;-93
2021/07/27 09:01:56;;;;;;;5.78;2.42;;;;;;;;;;143748;589;47021;-91
2021/07/27 09:04:29;;;;;;;6.82;3.20;;;;;;;;;;143751;626;46020;-93
2021/07/27 09:07:04;;;;;;;7.30;2.37;;;;;;;;;;143744;563;46916;-91
2021/07/27 09:09:35;;;;;;;10.10;2.67;;;;;;;;;;143747;704;46918;-91
2021/07/27 09:12:12;;;;;;;7.95;2.87;;;;;;;;;;143748;598;46020;-92
2021/07/27 09:14:45;;;;;;;8.93;3.85;;;;;;;;;;143751;608;46013;-93
2021/07/27 09:17:12;;;;;;;10.05;2.87;;;;;;;;;;143745;672;47014;-90
2021/07/27 09:19:43;;;;;;;5.72;2.60;;;;;;;;;;143747;683;45917;-90
2021/07/27 09:22:10;;;;;;;7.18;2.80;;;;;;;;;;143749;630;46020;-94
2021/07/27 09:24:42;;;;;;;3.40;2.53;;;;;;;;;;143751;758;45021;-92
2021/07/27 09:27:08;;;;;;;4.87;2.85;;;;;;;;;;143748;566;46020;-94
2021/07/27 09:29:45;;;;;;;4.05;3.12;;;;;;;;;;143747;740;45918;-90
2021/07/27 09:32:21;;;;;;;7.07;3.53;;;;;;;;;;143749;664;45021;-94
2021/07/27 09:34:50;;;;;;;8.85;3.10;;;;;;;;;;143751;581;45020;-90
2021/07/27 09:37:18;;;;;;;8.30;3.17;;;;;;;;;;143747;597;46014;-91
2021/07/27 09:39:45;;;;;;;3.92;3.00;;;;;;;;;;143748;687;46012;-91
2021/07/27 09:42:13;;;;;;;6.35;2.72;;;;;;;;;;143750;588;46020;-93
2021/07/27 09:44:41;;;;;;;5.00;2.87;;;;;;;;;;143752;713;45021;-93
2021/07/27 09:47:08;;;;;;;3.92;2.90;;;;;;;;;;143745;589;47020;-90
2021/07/27 09:49:39;;;;;;;5.40;3.15;;;;;;;;;;143750;628;45918;-93
2021/07/27 09:52:07;;;;;;;7.68;2.92;;;;;;;;;;143747;697;47019;-93
2021/07/27 09:54:35;;;;;;;12.20;3.40;;;;;;;;;;143749;575;46021;-92
2021/07/27 09:57:03;;;;;;;7.03;2.60;;;;;;;;;;143748;591;46020;-95
2021/07/27 09:59:30;;;;;;;7.95;3.60;;;;;;;;;;143748;564;45918;-92
2021/07/27 10:02:03;;;;;;;7.68;3.08;;;;;;;;;;143747;579;46021;-94
2021/07/27 10:04:38;;;;;;;7.22;3.08;;;;;;;;;;143749;580;46018;-91
2021/07/27 10:07:09;;;;;;;9.98;3.12;;;;;;;;;;143751;581;45022;-92
2021/07/27 10:09:39;;;;;;;6.68;2.87;;;;;;;;;;143747;620;46020;-92
2021/07/27 10:12:07;;;;;;;10.00;3.20;;;;;;;;;;143748;600;46020;-93
2021/07/27 10:14:45;;;;;;;6.22;3.20;;;;;;;;;;143751;695;46012;-93
2021/07/27 10:17:15;;;;;;;6.70;3.58;;;;;;;;;;143749;610;47023;-91
2021/07/27 10:19:56;;;;;;;9.63;3.10;;;;;;;;;;143745;593;47918;-90
2021/07/27 10:22:59;;;;;;;7.32;3.17;;;;;;;;;;143751;580;45021;-91
2021/07/27 10:26:35;;;;;;;;;;;;;;;;;;;;;
2021/07/27 10:30:04;;;;;;;10.68;3.25;;;;;;;;;;143750;607;45918;-90
2021/07/27 10:35:28;;;;;;;7.05;3.00;;;;;;;;;;143747;590;46022;-65
2021/07/27 10:38:11;;;;;;;4.05;2.75;;;;;;;;;;143747;589;46015;-67
2021/07/27 10:40:38;;;;;;;10.30;2.72;;;;;;;;;;143743;572;47023;-66
2021/07/27 10:43:07;;;;;;;9.18;2.78;;;;;;;;;;143743;578;46012;-67
2021/07/27 10:45:34;;;;;;;9.32;3.00;;;;;;;;;;143743;576;47021;-67
2021/07/27 10:48:01;;;;;;;5.47;2.80;;;;;;;;;;143746;569;46018;-67
2021/07/27 10:50:29;;;;;;;9.75;2.97;;;;;;;;;;143736;585;47022;-66
2021/07/27 10:53:24;;;;;;;5.57;3.17;;;;;;;;;;143742;614;46013;-66
2021/07/27 10:55:52;;;;;;;5.35;2.55;;;;;;;;;;143747;569;47020;-67
2021/07/27 10:58:20;;;;;;;6.75;2.60;;;;;;;;;;143748;573;46012;-66
2021/07/27 11:00:46;;;;;;;5.90;3.03;;;;;;;;;;143744;566;47021;-67
2021/07/27 11:03:12;;;;;;;8.43;2.70;;;;;;;;;;143745;564;46012;-65
2021/07/27 11:05:39;;;;;;;6.28;3.03;;;;;;;;;;143745;703;47020;-67
2021/07/27 11:08:06;;;;;;;4.97;2.65;;;;;;;;;;143749;570;46013;-66
2021/07/27 11:10:33;;;;;;;5.72;2.87;;;;;;;;;;143743;582;47022;-68
2021/07/27 11:12:59;;;;;;;4.50;2.75;;;;;;;;;;143745;563;46012;-65
2021/07/27 11:15:28;;;;;;;3.85;2.80;;;;;;;;;;143739;626;46021;-67
2021/07/27 11:18:04;;;;;;;6.70;2.65;;;;;;;;;;143747;705;46012;-66
2021/07/27 11:20:36;;;;;;;6.60;2.78;;;;;;;;;;143744;567;47022;-68
2021/07/27 11:23:18;;;;;;;10.57;2.83;;;;;;;;;;143743;587;46012;-66
2021/07/27 11:25:56;;;;;;;8.85;3.17;;;;;;;;;;143746;576;46020;-67
2021/07/27 11:28:32;;;;;;;9.27;2.70;;;;;;;;;;143749;589;46013;-66
2021/07/27 11:30:58;;;;;;;5.22;3.10;;;;;;;;;;143742;566;47023;-67
2021/07/27 11:33:25;;;;;;;3.47;2.67;;;;;;;;;;143743;594;46012;-66
2021/07/27 11:35:53;;;;;;;4.28;2.75;;;;;;;;;;143744;565;47020;-68
2021/07/27 11:38:32;;;;;;;8.13;2.97;;;;;;;;;;143747;569;46013;-67
2021/07/27 11:41:12;;;;;;;4.97;2.78;;;;;;;;;;143736;653;47020;-65
2021/07/27 11:43:40;;;;;;;10.55;2.62;;;;;;;;;;143745;624;46012;-67
2021/07/27 11:46:16;;;;;;;5.03;3.08;;;;;;;;;;143745;686;47021;-66
2021/07/27 11:48:55;;;;;;;7.30;3.00;;;;;;;;;;143746;583;46012;-67
2021/07/27 11:51:34;;;;;;;7.35;2.90;;;;;;;;;;143743;616;47021;-67
2021/07/27 11:54:01;;;;;;;7.22;2.80;;;;;;;;;;143744;576;46012;-67
2021/07/27 11:56:27;;;;;;;5.32;2.50;;;;;;;;;;143748;661;46020;-67
2021/07/27 11:59:01;;;;;;;7.72;2.60;;;;;;;;;;143748;580;46013;-67
2021/07/27 12:01:41;;;;;;;6.55;2.62;;;;;;;;;;143744;593;47020;-68
2021/07/27 12:04:09;;;;;;;5.68;2.47;;;;;;;;;;143743;569;47012;-68
2021/07/27 12:06:55;;;;;;;5.85;2.60;;;;;;;;;;143739;629;47021;-68
2021/07/27 12:09:22;;;;;;;8.95;2.78;;;;;;;;;;143748;604;46012;-66
2021/07/27 12:11:50;;;;;;;9.82;2.40;;;;;;;;;;143744;565;46022;-66
2021/07/27 12:14:17;;;;;;;6.87;2.70;;;;;;;;;;143743;571;46013;-67
2021/07/27 12:16:43;;;;;;;5.70;2.70;;;;;;;;;;143745;594;47020;-68
2021/07/27 12:19:10;;;;;;;4.72;2.92;;;;;;;;;;143746;615;46012;-66
2021/07/27 12:21:37;;;;;;;7.32;2.90;;;;;;;;;;143743;618;47021;-66
2021/07/27 12:24:04;;;;;;;4.53;2.35;;;;;;;;;;143744;571;46012;-68
2021/07/27 12:26:34;;;;;;;6.43;3.05;;;;;;;;;;143747;635;47020;-69
2021/07/27 12:29:01;;;;;;;11.18;2.47;;;;;;;;;;143749;630;46013;-67
2021/07/27 12:31:28;;;;;;;5.95;2.92;;;;;;;;;;143737;587;47020;-66
2021/07/27 12:33:54;;;;;;;4.32;3.00;;;;;;;;;;143744;668;46012;-65
2021/07/27 12:36:21;;;;;;;5.82;2.58;;;;;;;;;;143745;597;47021;-66
2021/07/27 12:38:48;;;;;;;6.22;2.50;;;;;;;;;;143749;695;46012;-66
2021/07/27 12:41:14;;;;;;;8.77;2.95;;;;;;;;;;143744;609;47022;-66
2021/07/27 12:43:41;;;;;;;9.65;2.90;;;;;;;;;;143746;564;46013;-66
2021/07/27 12:46:08;;;;;;;6.62;3.65;;;;;;;;;;143748;597;47020;-66
2021/07/27 12:48:35;;;;;;;6.78;3.60;;;;;;;;;;143749;588;46012;-69
2021/07/27 12:51:01;;;;;;;4.62;2.72;;;;;;;;;;143744;564;47022;-66
2021/07/27 12:53:28;;;;;;;6.47;2.85;;;;;;;;;;143745;589;46012;-65
2021/07/27 12:55:58;;;;;;;5.82;2.75;;;;;;;;;;143738;631;47020;-66
2021/07/27 12:58:25;;;;;;;4.20;3.05;;;;;;;;;;143748;664;46013;-66
2021/07/27 13:00:52;;;;;;;4.25;2.65;;;;;;;;;;143746;570;46020;-67
2021/07/27 13:03:18;;;;;;;5.45;2.78;;;;;;;;;;143744;628;46012;-66
2021/07/27 13:05:45;;;;;;;7.62;2.60;;;;;;;;;;143747;651;47020;-66
2021/07/27 13:08:12;;;;;;;6.43;2.42;;;;;;;;;;143745;578;47021;-68
2021/07/27 13:10:39;;;;;;;4.10;2.85;;;;;;;;;;143750;588;47022;-67
2021/07/27 13:13:05;;;;;;;6.72;2.50;;;;;;;;;;143746;577;46012;-66
2021/07/27 13:15:32;;;;;;;7.55;3.20;;;;;;;;;;143745;569;47020;-65
2021/07/27 13:17:58;;;;;;;7.45;2.70;;;;;;;;;;143749;573;46012;-66
2021/07/27 13:20:26;;;;;;;3.67;3.03;;;;;;;;;;143736;576;47021;-67
2021/07/27 13:22:52;;;;;;;4.90;3.08;;;;;;;;;;143746;569;46012;-66
2021/07/27 13:25:19;;;;;;;3.92;2.55;;;;;;;;;;143745;675;47020;-66
2021/07/27 13:27:45;;;;;;;8.73;2.87;;;;;;;;;;143749;609;46013;-66
2021/07/27 13:30:12;;;;;;;4.75;2.42;;;;;;;;;;143745;625;47020;-69
2021/07/27 13:32:39;;;;;;;2.62;2.20;;;;;;;;;;143749;579;46020;-67
2021/07/27 13:35:06;;;;;;;8.63;3.37;;;;;;;;;;143745;564;47020;-67
2021/07/27 13:37:33;;;;;;;7.62;2.70;;;;;;;;;;143747;592;46013;-67
2021/07/27 13:39:59;;;;;;;5.15;2.47;;;;;;;;;;143746;619;47022;-67
2021/07/27 13:42:26;;;;;;;4.97;2.50;;;;;;;;;;143747;649;46012;-67
2021/07/27 13:44:52;;;;;;;8.65;2.83;;;;;;;;;;143742;566;47020;-66
2021/07/27 13:47:19;;;;;;;7.97;2.58;;;;;;;;;;143749;612;46012;-67
2021/07/27 13:49:46;;;;;;;18.23;3.08;;;;;;;;;;143746;569;46042;-67
2021/07/27 13:52:12;;;;;;;7.18;3.12;;;;;;;;;;143744;731;46013;-66
2021/07/27 13:54:40;;;;;;;7.22;2.90;;;;;;;;;;143748;615;47020;-65
2021/07/27 13:57:07;;;;;;;3.08;2.53;;;;;;;;;;143750;571;46012;-67
2021/07/27 13:59:35;;;;;;;8.32;2.70;;;;;;;;;;143746;585;47020;-68
2021/07/27 14:02:02;;;;;;;6.57;2.67;;;;;;;;;;143748;607;46012;-67
2021/07/27 14:04:31;;;;;;;8.00;3.28;;;;;;;;;;143748;609;46020;-66
2021/07/27 14:06:58;;;;;;;7.05;2.42;;;;;;;;;;143750;587;46012;-66
2021/07/27 14:09:25;;;;;;;3.92;2.83;;;;;;;;;;143738;653;47022;-66
2021/07/27 14:11:52;;;;;;;17.62;3.65;;;;;;;;;;143746;595;46012;-67
2021/07/27 14:14:18;;;;;;;5.00;2.47;;;;;;;;;;143747;599;47021;-67
2021/07/27 14:16:45;;;;;;;4.47;2.35;;;;;;;;;;143749;583;46012;-67
2021/07/27 14:19:12;;;;;;;8.73;2.62;;;;;;;;;;143744;656;47020;-66
2021/07/27 14:21:38;;;;;;;10.15;2.60;;;;;;;;;;143747;574;46012;-67
2021/07/27 14:24:05;;;;;;;5.07;2.75;;;;;;;;;;143746;612;47020;-66
2021/07/27 14:26:32;;;;;;;3.08;2.03;;;;;;;;;;143749;565;46012;-66
2021/07/27 14:28:58;;;;;;;9.48;3.00;;;;;;;;;;143744;571;47023;-67
2021/07/27 14:31:24;;;;;;;7.57;2.55;;;;;;;;;;143746;574;46920;-66
2021/07/27 14:33:51;;;;;;;3.62;2.10;;;;;;;;;;143740;563;47020;-66
2021/07/27 14:36:18;;;;;;;3.83;2.35;;;;;;;;;;143749;566;46012;-66
2021/07/27 14:38:44;;;;;;;3.50;2.17;;;;;;;;;;143746;606;47023;-67
2021/07/27 14:41:13;;;;;;;3.67;2.33;;;;;;;;;;143745;641;46012;-66
2021/07/27 14:43:40;;;;;;;8.30;2.50;;;;;;;;;;143749;586;46049;-68
2021/07/27 14:46:07;;;;;;;7.00;2.78;;;;;;;;;;143748;698;46020;-66
2021/07/27 14:48:35;;;;;;;5.37;2.50;;;;;;;;;;143745;575;47020;-67
2021/07/27 14:51:02;;;;;;;5.00;2.42;;;;;;;;;;143745;606;46021;-66
2021/07/27 14:53:29;;;;;;;5.25;2.58;;;;;;;;;;143745;570;47020;-66
2021/07/27 14:55:55;;;;;;;5.93;2.67;;;;;;;;;;143750;625;46012;-67
2021/07/27 14:58:22;;;;;;;4.03;2.50;;;;;;;;;;143738;586;47022;-66
2021/07/27 15:00:49;;;;;;;7.25;2.70;;;;;;;;;;143746;674;46012;-66
2021/07/27 15:03:15;;;;;;;6.37;2.12;;;;;;;;;;143750;569;46030;-68
2021/07/27 15:05:42;;;;;;;8.30;2.80;;;;;;;;;;143751;683;46012;-68
2021/07/27 15:08:09;;;;;;;8.35;2.80;;;;;;;;;;143743;684;47023;-66
2021/07/27 15:10:35;;;;;;;4.70;2.20;;;;;;;;;;143745;692;46012;-66
2021/07/27 15:13:02;;;;;;;7.60;3.10;;;;;;;;;;143746;566;47021;-67
2021/07/27 15:15:29;;;;;;;8.15;2.45;;;;;;;;;;143749;584;46012;-65
2021/07/27 15:17:55;;;;;;;6.40;2.90;;;;;;;;;;143745;597;47020;-67
2021/07/27 15:20:22;;;;;;;4.65;2.47;;;;;;;;;;143745;593;46013;-66
2021/07/27 15:22:48;;;;;;;6.45;2.70;;;;;;;;;;143740;575;47020;-67
2021/07/27 15:25:15;;;;;;;5.22;2.67;;;;;;;;;;143748;698;47012;-66
2021/07/27 15:27:43;;;;;;;5.55;2.50;;;;;;;;;;143746;679;47022;-66
2021/07/27 15:30:10;;;;;;;3.78;2.50;;;;;;;;;;143744;596;46012;-66
2021/07/27 15:32:37;;;;;;;6.40;2.85;;;;;;;;;;143748;607;47020;-67
2021/07/27 15:35:04;;;;;;;3.85;2.67;;;;;;;;;;143750;572;46020;-66
2021/07/27 15:37:31;;;;;;;7.82;3.03;;;;;;;;;;143744;621;47023;-66
2021/07/27 15:39:58;;;;;;;4.10;2.60;;;;;;;;;;143745;593;46012;-67
2021/07/27 15:42:24;;;;;;;4.70;2.87;;;;;;;;;;143745;569;47021;-67
2021/07/27 15:44:51;;;;;;;4.87;3.08;;;;;;;;;;143749;618;46012;-65
2021/07/27 15:47:17;;;;;;;12.65;2.85;;;;;;;;;;143740;575;47020;-68